createdAt,value
2023-01-17T00:02:11.603Z,97297.16
2023-01-17T00:04:57.238Z,97298.94
2023-01-17T00:07:43.534Z,97294.13
2023-01-17T00:10:13.097Z,97295.53
2023-01-17T00:12:39.851Z,97288.00
2023-01-17T00:15:07.458Z,97286.97
2023-01-17T00:17:34.079Z,97285.50
2023-01-17T00:20:20.303Z,97283.78
2023-01-17T00:23:05.600Z,97277.88
2023-01-17T00:25:55.803Z,97284.81
2023-01-17T00:28:22.830Z,97287.00
2023-01-17T00:30:49.370Z,97278.13
2023-01-17T00:33:16.179Z,97276.00
2023-01-17T00:35:42.754Z,97285.53
2023-01-17T00:38:12.800Z,97282.13
2023-01-17T00:40:41.993Z,97280.31
2023-01-17T00:43:28.576Z,97275.75
2023-01-17T00:46:14.112Z,97278.81
2023-01-17T00:48:59.836Z,97272.59
2023-01-17T00:51:46.355Z,97274.44
2023-01-17T00:54:32.212Z,97271.16
2023-01-17T00:57:17.222Z,97272.25
2023-01-17T01:00:03.043Z,97280.22
2023-01-17T01:02:48.411Z,97266.81
2023-01-17T01:05:34.173Z,97268.25
2023-01-17T01:08:20.345Z,97274.34
2023-01-17T01:11:07.265Z,97277.16
2023-01-17T01:13:52.243Z,97269.88
2023-01-17T01:16:39.120Z,97268.94
2023-01-17T01:19:24.197Z,97272.56
2023-01-17T01:22:09.574Z,97277.88
2023-01-17T01:24:55.011Z,97275.16
2023-01-17T01:27:40.429Z,97270.00
2023-01-17T01:30:26.350Z,97279.19
2023-01-17T01:33:11.302Z,97284.69
2023-01-17T01:35:37.905Z,97276.47
2023-01-17T01:38:04.518Z,97278.56
2023-01-17T01:40:31.230Z,97274.13
2023-01-17T01:42:59.939Z,97261.06
2023-01-17T01:45:29.653Z,97264.91
2023-01-17T01:48:03.714Z,97259.28
2023-01-17T01:50:33.576Z,97256.22
2023-01-17T01:53:02.559Z,97252.56
2023-01-17T01:55:35.981Z,97250.81
2023-01-17T01:58:08.816Z,97250.34
2023-01-17T02:00:38.204Z,97254.59
2023-01-17T02:03:11.257Z,97232.00
2023-01-17T02:05:38.119Z,97253.16
2023-01-17T02:08:08.272Z,97260.69
2023-01-17T02:10:37.187Z,97254.81
2023-01-17T02:13:04.364Z,97259.06
2023-01-17T02:15:45.727Z,97252.09
2023-01-17T02:18:35.137Z,97250.69
2023-01-17T02:21:07.691Z,97251.03
2023-01-17T02:24:20.640Z,97248.56
2023-01-17T02:27:25.833Z,97247.31
2023-01-17T02:30:37.565Z,97251.53
2023-01-17T02:33:21.037Z,97251.28
2023-01-17T02:36:25.923Z,97247.06
2023-01-17T02:39:01.990Z,97246.34
2023-01-17T02:41:34.588Z,97245.16
2023-01-17T02:44:02.416Z,97248.34
2023-01-17T02:46:29.053Z,97247.63
2023-01-17T02:48:57.809Z,97248.56
2023-01-17T02:51:37.227Z,97239.72
2023-01-17T02:54:23.821Z,97239.75
2023-01-17T02:57:17.960Z,97238.47
2023-01-17T02:59:58.772Z,97236.94
2023-01-17T03:02:35.043Z,97237.66
2023-01-17T03:05:14.057Z,97244.72
2023-01-17T03:07:42.883Z,97243.28
2023-01-17T03:10:12.576Z,97239.25
2023-01-17T03:12:40.386Z,97245.41
2023-01-17T03:15:16.003Z,97246.13
2023-01-17T03:17:48.053Z,97236.94
2023-01-17T03:20:15.399Z,97236.94
2023-01-17T03:22:41.947Z,97239.28
2023-01-17T03:25:08.684Z,97238.59
2023-01-17T03:27:35.352Z,97248.22
2023-01-17T03:30:02.027Z,97251.16
2023-01-17T03:32:28.846Z,97256.00
2023-01-17T03:34:55.695Z,97247.16
2023-01-17T03:37:22.447Z,97253.16
2023-01-17T03:39:49.094Z,97254.47
2023-01-17T03:42:15.711Z,97248.22
2023-01-17T03:44:42.402Z,97251.16
2023-01-17T03:47:12.287Z,97250.81
2023-01-17T03:49:39.937Z,97248.47
2023-01-17T03:52:07.104Z,97259.28
2023-01-17T03:54:33.820Z,97251.88
2023-01-17T03:57:00.485Z,97255.03
2023-01-17T03:59:27.219Z,97256.47
2023-01-17T04:01:53.939Z,97254.84
2023-01-17T04:04:20.557Z,97252.00
2023-01-17T04:06:48.017Z,97252.69
2023-01-17T04:09:14.818Z,97245.06
2023-01-17T04:11:41.430Z,97244.78
2023-01-17T04:14:08.025Z,97248.59
2023-01-17T04:16:34.941Z,97244.47
2023-01-17T04:19:01.573Z,97249.19
2023-01-17T04:21:28.192Z,97241.19
2023-01-17T04:23:54.754Z,97240.69
2023-01-17T04:26:21.384Z,97242.59
2023-01-17T04:28:48.419Z,97246.09
2023-01-17T04:31:17.458Z,97244.94
2023-01-17T04:33:44.337Z,97248.00
2023-01-17T04:36:10.889Z,97253.63
2023-01-17T04:38:37.567Z,97257.09
2023-01-17T04:41:04.505Z,97257.53
2023-01-17T04:43:31.139Z,97257.78
2023-01-17T04:45:58.861Z,97249.41
2023-01-17T04:48:27.160Z,97257.88
2023-01-17T04:51:05.079Z,97263.53
2023-01-17T04:53:32.260Z,97264.94
2023-01-17T04:55:58.926Z,97267.16
2023-01-17T04:58:26.663Z,97276.47
2023-01-17T05:00:53.327Z,97272.47
2023-01-17T05:03:21.455Z,97281.06
2023-01-17T05:05:48.464Z,97288.03
2023-01-17T05:08:15.345Z,97292.69
2023-01-17T05:10:41.980Z,97285.16
2023-01-17T05:13:09.119Z,97294.34
2023-01-17T05:15:36.740Z,97286.34
2023-01-17T05:18:08.428Z,97295.13
2023-01-17T05:20:36.581Z,97298.56
2023-01-17T05:23:03.181Z,97295.28
2023-01-17T05:25:31.920Z,97302.38
2023-01-17T05:28:01.751Z,97307.25
2023-01-17T05:30:30.712Z,97309.59
2023-01-17T05:32:58.565Z,97312.34
2023-01-17T05:35:28.415Z,97306.59
2023-01-17T05:37:56.167Z,97316.91
2023-01-17T05:40:25.569Z,97314.00
2023-01-17T05:42:54.962Z,97325.84
2023-01-17T05:45:23.593Z,97320.94
2023-01-17T05:47:52.563Z,97333.91
2023-01-17T05:50:23.723Z,97325.88
2023-01-17T05:52:58.317Z,97323.53
2023-01-17T05:55:26.998Z,97327.50
2023-01-17T05:57:54.602Z,97330.63
2023-01-17T06:00:22.221Z,97331.56
2023-01-17T06:02:49.368Z,97340.47
2023-01-17T06:05:16.628Z,97347.78
2023-01-17T06:07:47.101Z,97355.00
2023-01-17T06:10:15.182Z,97350.06
2023-01-17T06:12:43.222Z,97361.44
2023-01-17T06:15:11.289Z,97357.28
2023-01-17T06:17:38.353Z,97380.97
2023-01-17T06:20:07.085Z,97371.03
2023-01-17T06:22:34.096Z,97386.44
2023-01-17T06:25:00.990Z,97381.66
2023-01-17T06:27:27.990Z,97390.88
2023-01-17T06:29:54.616Z,97409.41
2023-01-17T06:32:21.283Z,97413.59
2023-01-17T06:34:47.862Z,97431.91
2023-01-17T06:37:14.446Z,97427.97
2023-01-17T06:39:41.061Z,97424.25
2023-01-17T06:42:07.690Z,97432.03
2023-01-17T06:44:34.348Z,97458.44
2023-01-17T06:47:00.937Z,97446.44
2023-01-17T06:49:27.622Z,97458.81
2023-01-17T06:51:54.257Z,97466.06
2023-01-17T06:54:20.847Z,97494.59
2023-01-17T06:56:47.482Z,97481.47
2023-01-17T06:59:14.061Z,97497.59
2023-01-17T07:01:41.498Z,97494.00
2023-01-17T07:04:08.200Z,97497.31
2023-01-17T07:06:38.021Z,97510.16
2023-01-17T07:09:05.155Z,97525.16
2023-01-17T07:11:32.271Z,97526.47
2023-01-17T07:13:58.860Z,97527.78
2023-01-17T07:16:25.665Z,97527.66
2023-01-17T07:18:53.248Z,97536.66
2023-01-17T07:21:19.963Z,97527.56
2023-01-17T07:23:48.128Z,97548.22
2023-01-17T07:26:16.875Z,97550.47
2023-01-17T07:28:43.782Z,97561.38
2023-01-17T07:31:10.439Z,97574.56
2023-01-17T07:33:37.071Z,97586.66
2023-01-17T07:36:06.373Z,97587.69
2023-01-17T07:38:33.092Z,97595.41
2023-01-17T07:41:00.088Z,97603.34
2023-01-17T07:43:27.086Z,97596.44
2023-01-17T07:45:53.819Z,97610.31
2023-01-17T07:48:23.533Z,97606.44
2023-01-17T07:50:57.835Z,97606.56
2023-01-17T07:53:26.346Z,97612.69
2023-01-17T07:55:53.527Z,97618.66
2023-01-17T07:58:20.840Z,97627.91
2023-01-17T08:00:47.932Z,97639.34
2023-01-17T08:03:17.236Z,97647.19
2023-01-17T08:05:53.433Z,97648.25
2023-01-17T08:08:20.178Z,97658.84
2023-01-17T08:10:47.089Z,97663.75
2023-01-17T08:13:13.656Z,97668.72
2023-01-17T08:15:40.217Z,97674.22
2023-01-17T08:18:06.951Z,97689.91
2023-01-17T08:20:33.705Z,97687.16
2023-01-17T08:23:00.271Z,97697.97
2023-01-17T08:25:26.957Z,97702.19
2023-01-17T08:27:57.767Z,97704.78
2023-01-17T08:30:25.381Z,97706.50
2023-01-17T08:32:51.955Z,97718.38
2023-01-17T08:35:19.968Z,97709.53
2023-01-17T08:37:47.596Z,97716.84
2023-01-17T08:40:17.216Z,97712.38
2023-01-17T08:42:44.228Z,97725.25
2023-01-17T08:45:12.009Z,97730.00
2023-01-17T08:47:38.778Z,97735.56
2023-01-17T08:50:06.758Z,97749.19
2023-01-17T08:52:33.871Z,97749.94
2023-01-17T08:55:00.489Z,97746.47
2023-01-17T08:57:27.200Z,97752.47
2023-01-17T08:59:53.774Z,97748.84
2023-01-17T09:02:20.652Z,97765.31
2023-01-17T09:04:49.017Z,97775.22
2023-01-17T09:07:17.626Z,97771.47
2023-01-17T09:09:44.800Z,97768.88
2023-01-17T09:12:11.470Z,97760.03
2023-01-17T09:14:38.468Z,97767.81
2023-01-17T09:17:08.333Z,97777.78
2023-01-17T09:19:35.481Z,97778.19
2023-01-17T09:22:04.620Z,97795.69
2023-01-17T09:24:32.719Z,97793.72
2023-01-17T09:27:00.235Z,97790.41
2023-01-17T09:29:30.724Z,97794.69
2023-01-17T09:31:57.354Z,97799.78
2023-01-17T09:34:24.367Z,97801.75
2023-01-17T09:36:51.061Z,97807.09
2023-01-17T09:39:17.744Z,97809.09
2023-01-17T09:41:47.142Z,97811.97
2023-01-17T09:44:16.432Z,97812.44
2023-01-17T09:46:46.148Z,97827.59
2023-01-17T09:49:19.812Z,97827.97
2023-01-17T09:51:46.422Z,97840.66
2023-01-17T09:54:23.363Z,97842.97
2023-01-17T09:57:27.715Z,97848.97
2023-01-17T10:00:09.462Z,97843.19
2023-01-17T10:02:48.174Z,97848.38
2023-01-17T10:05:16.361Z,97855.63
2023-01-17T10:08:00.430Z,97847.72
2023-01-17T10:10:42.229Z,97850.22
2023-01-17T10:13:33.168Z,97862.28
2023-01-17T10:16:02.480Z,97856.94
2023-01-17T10:18:50.718Z,97868.84
2023-01-17T10:21:29.527Z,97873.78
2023-01-17T10:23:56.010Z,97878.63
2023-01-17T10:26:24.926Z,97880.94
2023-01-17T10:28:55.165Z,97877.66
2023-01-17T10:31:24.793Z,97882.72
2023-01-17T10:34:04.613Z,97876.84
2023-01-17T10:36:38.601Z,97879.06
2023-01-17T10:39:13.868Z,97885.53
2023-01-17T10:41:44.631Z,97877.50
2023-01-17T10:44:20.491Z,97879.81
2023-01-17T10:47:12.276Z,97872.91
2023-01-17T10:49:44.930Z,97879.72
2023-01-17T10:52:23.232Z,97883.19
2023-01-17T10:55:05.222Z,97879.25
2023-01-17T10:57:40.329Z,97877.47
2023-01-17T11:00:33.795Z,97873.34
2023-01-17T11:03:01.547Z,97876.53
2023-01-17T11:05:30.799Z,97883.41
2023-01-17T11:08:06.791Z,97890.03
2023-01-17T11:10:35.571Z,97894.19
2023-01-17T11:13:06.020Z,97894.91
2023-01-17T11:15:39.462Z,97896.47
2023-01-17T11:18:15.114Z,97889.53
2023-01-17T11:20:43.252Z,97891.50
2023-01-17T11:23:15.359Z,97900.47
2023-01-17T11:25:56.836Z,97904.63
2023-01-17T11:28:26.238Z,97904.22
2023-01-17T11:30:56.013Z,97919.41
2023-01-17T11:33:48.978Z,97909.91
2023-01-17T11:36:22.435Z,97904.34
2023-01-17T11:38:56.642Z,97917.16
2023-01-17T11:41:28.240Z,97919.34
2023-01-17T11:43:58.863Z,97920.13
2023-01-17T11:46:26.031Z,97918.66
2023-01-17T11:48:56.354Z,97923.84
2023-01-17T11:51:32.557Z,97917.66
2023-01-17T11:54:11.154Z,97917.63
2023-01-17T11:56:38.028Z,97920.06
2023-01-17T11:59:13.536Z,97916.19
2023-01-17T12:01:45.887Z,97924.03
2023-01-17T12:04:31.194Z,97931.03
2023-01-17T12:07:31.892Z,97936.84
2023-01-17T12:10:21.907Z,97935.09
2023-01-17T12:13:10.250Z,97941.00
2023-01-17T12:15:52.313Z,97962.75
2023-01-17T12:18:44.924Z,97958.09
2023-01-17T12:21:29.491Z,97946.06
2023-01-17T12:24:02.532Z,97958.28
2023-01-17T12:26:41.353Z,97959.38
2023-01-17T12:29:35.280Z,97946.75
2023-01-17T12:32:02.016Z,97950.50
2023-01-17T12:34:35.876Z,97961.34
2023-01-17T12:37:25.138Z,97959.69
2023-01-17T12:39:58.413Z,97967.06
2023-01-17T12:42:31.808Z,97965.19
2023-01-17T12:45:11.886Z,97966.47
2023-01-17T12:47:44.722Z,97976.00
2023-01-17T12:50:36.292Z,97980.78
2023-01-17T12:53:15.712Z,97977.84
2023-01-17T12:56:02.224Z,97975.16
2023-01-17T12:58:38.418Z,97984.81
2023-01-17T13:01:29.469Z,97973.19
2023-01-17T13:04:33.150Z,97982.44
2023-01-17T13:07:00.117Z,97995.59
2023-01-17T13:09:44.499Z,97983.44
2023-01-17T13:12:17.885Z,97994.66
2023-01-17T13:14:48.841Z,97992.13
2023-01-17T13:17:31.918Z,98001.03
2023-01-17T13:20:17.450Z,98008.50
2023-01-17T13:22:45.224Z,98007.25
2023-01-17T13:25:22.725Z,97999.22
2023-01-17T13:28:00.758Z,98006.50
2023-01-17T13:30:57.933Z,98011.34
2023-01-17T13:33:47.106Z,98011.41
2023-01-17T13:36:22.042Z,98016.88
2023-01-17T13:38:54.937Z,98014.72
2023-01-17T13:41:45.996Z,98018.81
2023-01-17T13:44:24.762Z,98012.00
2023-01-17T13:47:05.667Z,98018.66
2023-01-17T13:49:43.479Z,98024.78
2023-01-17T13:52:19.361Z,98030.47
2023-01-17T13:54:50.779Z,98032.59
2023-01-17T13:57:23.665Z,98027.81
2023-01-17T13:59:50.514Z,98034.44
2023-01-17T14:02:32.364Z,98040.22
2023-01-17T14:05:17.521Z,98044.13
2023-01-17T14:08:06.099Z,98047.91
2023-01-17T14:10:36.384Z,98054.78
2023-01-17T14:13:05.579Z,98063.03
2023-01-17T14:15:49.940Z,98064.22
2023-01-17T14:18:45.927Z,98062.88
2023-01-17T14:21:25.182Z,98073.25
2023-01-17T14:24:10.474Z,98069.31
2023-01-17T14:26:45.215Z,98077.59
2023-01-17T14:29:42.861Z,98074.47
2023-01-17T14:32:12.564Z,98074.91
2023-01-17T14:34:39.653Z,98081.75
2023-01-17T14:37:37.572Z,98084.22
2023-01-17T14:40:31.923Z,98094.81
2023-01-17T14:43:04.335Z,98097.91
2023-01-17T14:45:33.544Z,98089.97
2023-01-17T14:48:06.329Z,98093.38
2023-01-17T14:50:42.162Z,98094.25
2023-01-17T14:53:12.074Z,98106.03
2023-01-17T14:56:02.979Z,98093.88
2023-01-17T14:58:34.778Z,98100.72
2023-01-17T15:01:01.471Z,98098.94
2023-01-17T15:03:30.681Z,98113.47
2023-01-17T15:06:09.889Z,98104.69
2023-01-17T15:08:36.819Z,98093.88
2023-01-17T15:11:10.272Z,98116.59
2023-01-17T15:13:44.614Z,98112.34
2023-01-17T15:16:34.044Z,98118.28
2023-01-17T15:19:01.892Z,98119.31
2023-01-17T15:21:40.467Z,98127.47
2023-01-17T15:24:09.275Z,98128.78
2023-01-17T15:26:43.327Z,98131.28
2023-01-17T15:29:18.699Z,98134.59
2023-01-17T15:31:50.907Z,98134.44
2023-01-17T15:34:26.127Z,98135.66
2023-01-17T15:36:53.618Z,98132.91
2023-01-17T15:39:33.842Z,98138.78
2023-01-17T15:42:03.364Z,98130.16
2023-01-17T15:44:49.359Z,98142.91
2023-01-17T15:47:30.283Z,98140.66
2023-01-17T15:49:57.605Z,98134.88
2023-01-17T15:52:24.430Z,98149.75
2023-01-17T15:54:56.007Z,98137.72
2023-01-17T15:57:25.629Z,98142.59
2023-01-17T16:00:20.238Z,98147.25
2023-01-17T16:02:58.922Z,98143.19
2023-01-17T16:05:30.880Z,98154.69
2023-01-17T16:07:58.612Z,98156.69
2023-01-17T16:10:28.720Z,98151.50
2023-01-17T16:12:56.201Z,98164.06
2023-01-17T16:15:23.727Z,98163.53
2023-01-17T16:17:57.764Z,98169.09
2023-01-17T16:20:30.624Z,98168.19
2023-01-17T16:22:57.234Z,98175.31
2023-01-17T16:25:24.899Z,98178.88
2023-01-17T16:27:52.291Z,98184.03
2023-01-17T16:30:21.666Z,98183.59
2023-01-17T16:32:49.385Z,98183.84
2023-01-17T16:35:24.679Z,98192.00
2023-01-17T16:37:56.779Z,98191.75
2023-01-17T16:40:26.102Z,98200.84
2023-01-17T16:42:53.070Z,98195.69
2023-01-17T16:45:19.654Z,98187.09
2023-01-17T16:47:48.022Z,98196.81
2023-01-17T16:50:17.672Z,98201.16
2023-01-17T16:52:44.313Z,98202.75
2023-01-17T16:55:13.735Z,98208.34
2023-01-17T16:57:41.763Z,98214.91
2023-01-17T17:00:10.397Z,98220.47
2023-01-17T17:02:38.953Z,98216.75
2023-01-17T17:05:07.387Z,98226.94
2023-01-17T17:07:44.098Z,98223.91
2023-01-17T17:10:14.064Z,98217.69
2023-01-17T17:12:41.149Z,98233.94
2023-01-17T17:15:09.373Z,98224.44
2023-01-17T17:17:37.433Z,98230.13
2023-01-17T17:20:05.745Z,98239.97
2023-01-17T17:22:33.047Z,98231.69
2023-01-17T17:24:59.658Z,98238.69
2023-01-17T17:27:27.723Z,98245.53
2023-01-17T17:29:54.757Z,98246.03
2023-01-17T17:32:21.884Z,98249.59
2023-01-17T17:34:50.755Z,98251.94
2023-01-17T17:37:17.827Z,98255.31
2023-01-17T17:39:45.247Z,98250.72
2023-01-17T17:42:12.474Z,98256.38
2023-01-17T17:44:39.137Z,98266.56
2023-01-17T17:47:05.806Z,98272.91
2023-01-17T17:49:32.542Z,98264.66
2023-01-17T17:52:06.925Z,98259.47
2023-01-17T17:54:34.166Z,98263.34
2023-01-17T17:57:00.734Z,98271.75
2023-01-17T17:59:27.456Z,98274.13
2023-01-17T18:01:54.219Z,98273.88
2023-01-17T18:04:21.652Z,98273.50
2023-01-17T18:06:48.300Z,98283.41
2023-01-17T18:09:15.071Z,98282.63
2023-01-17T18:11:42.966Z,98272.91
2023-01-17T18:14:13.515Z,98279.44
2023-01-17T18:16:42.962Z,98284.28
2023-01-17T18:19:19.100Z,98287.81
2023-01-17T18:21:46.044Z,98290.47
2023-01-17T18:24:15.082Z,98306.13
2023-01-17T18:26:43.279Z,98299.22
2023-01-17T18:29:14.808Z,98296.63
2023-01-17T18:31:42.883Z,98306.69
2023-01-17T18:34:12.432Z,98308.06
2023-01-17T18:36:39.359Z,98305.06
2023-01-17T18:39:12.572Z,98306.00
2023-01-17T18:41:39.363Z,98305.25
2023-01-17T18:44:06.890Z,98309.81
2023-01-17T18:46:34.570Z,98312.16
2023-01-17T18:49:01.346Z,98313.25
2023-01-17T18:51:29.760Z,98315.31
2023-01-17T18:53:58.090Z,98323.66
2023-01-17T18:56:24.966Z,98323.81
2023-01-17T18:58:51.659Z,98328.97
2023-01-17T19:01:24.266Z,98332.09
2023-01-17T19:03:52.844Z,98335.16
2023-01-17T19:06:25.866Z,98323.25
2023-01-17T19:08:52.777Z,98329.91
2023-01-17T19:11:21.129Z,98334.94
2023-01-17T19:13:50.205Z,98337.22
2023-01-17T19:16:29.524Z,98335.19
2023-01-17T19:18:58.031Z,98331.34
2023-01-17T19:21:27.439Z,98331.34
2023-01-17T19:23:56.094Z,98331.00
2023-01-17T19:26:25.249Z,98334.16
2023-01-17T19:28:52.242Z,98334.66
2023-01-17T19:31:25.111Z,98334.19
2023-01-17T19:33:54.307Z,98347.91
2023-01-17T19:36:23.932Z,98343.66
2023-01-17T19:39:03.506Z,98336.31
2023-01-17T19:41:32.378Z,98348.50
2023-01-17T19:44:08.186Z,98347.00
2023-01-17T19:46:36.166Z,98351.69
2023-01-17T19:49:04.347Z,98346.09
2023-01-17T19:51:30.967Z,98343.84
2023-01-17T19:54:01.136Z,98351.00
2023-01-17T19:56:28.694Z,98347.88
2023-01-17T19:58:57.191Z,98358.13
2023-01-17T20:01:30.053Z,98359.94
2023-01-17T20:03:58.464Z,98362.59
2023-01-17T20:06:27.484Z,98359.66
2023-01-17T20:08:54.369Z,98366.44
2023-01-17T20:11:23.611Z,98368.50
2023-01-17T20:13:55.620Z,98369.28
2023-01-17T20:16:24.175Z,98370.31
2023-01-17T20:18:51.464Z,98375.38
2023-01-17T20:21:21.346Z,98374.13
2023-01-17T20:23:50.003Z,98373.22
2023-01-17T20:26:19.561Z,98369.75
2023-01-17T20:28:48.981Z,98369.19
2023-01-17T20:31:20.885Z,98370.09
2023-01-17T20:33:50.457Z,98375.81
2023-01-17T20:36:18.452Z,98379.09
2023-01-17T20:38:46.693Z,98382.16
2023-01-17T20:41:15.028Z,98381.56
2023-01-17T20:43:43.307Z,98384.22
2023-01-17T20:46:10.801Z,98379.91
2023-01-17T20:48:43.251Z,98383.81
2023-01-17T20:51:12.894Z,98377.91
2023-01-17T20:53:41.639Z,98378.00
2023-01-17T20:56:09.131Z,98382.63
2023-01-17T20:58:36.027Z,98385.81
2023-01-17T21:01:02.818Z,98371.50
2023-01-17T21:03:29.473Z,98384.47
2023-01-17T21:06:10.492Z,98384.94
2023-01-17T21:08:39.482Z,98389.69
2023-01-17T21:11:07.410Z,98390.47
2023-01-17T21:13:34.933Z,98394.94
2023-01-17T21:16:02.470Z,98380.97
2023-01-17T21:18:31.827Z,98391.63
2023-01-17T21:21:05.763Z,98397.72
2023-01-17T21:23:33.345Z,98392.22
2023-01-17T21:26:00.039Z,98396.09
2023-01-17T21:28:29.352Z,98398.94
2023-01-17T21:30:56.400Z,98392.28
2023-01-17T21:33:25.320Z,98405.19
2023-01-17T21:35:52.229Z,98410.47
2023-01-17T21:38:18.960Z,98400.91
2023-01-17T21:40:45.854Z,98406.56
2023-01-17T21:43:15.156Z,98399.47
2023-01-17T21:45:42.710Z,98405.25
2023-01-17T21:48:14.590Z,98407.06
2023-01-17T21:50:41.298Z,98407.75
2023-01-17T21:53:10.073Z,98410.88
2023-01-17T21:55:56.503Z,98418.28
2023-01-17T21:58:41.714Z,98417.44
2023-01-17T22:01:22.420Z,98419.47
2023-01-17T22:03:52.822Z,98427.47
2023-01-17T22:06:20.808Z,98433.56
2023-01-17T22:08:47.974Z,98434.28
2023-01-17T22:11:20.593Z,98432.69
2023-01-17T22:13:47.373Z,98439.34
2023-01-17T22:16:19.434Z,98456.91
2023-01-17T22:18:47.376Z,98453.91
2023-01-17T22:21:14.976Z,98459.06
2023-01-17T22:23:53.947Z,98458.25
2023-01-17T22:26:23.429Z,98462.94
2023-01-17T22:28:50.182Z,98472.59
2023-01-17T22:31:20.730Z,98467.09
2023-01-17T22:33:51.610Z,98477.38
2023-01-17T22:36:18.480Z,98478.34
2023-01-17T22:38:45.196Z,98491.13
2023-01-17T22:41:16.125Z,98492.31
2023-01-17T22:43:52.308Z,98490.56
2023-01-17T22:46:24.866Z,98497.38
2023-01-17T22:48:53.120Z,98490.47
2023-01-17T22:51:22.030Z,98498.03
2023-01-17T22:53:50.895Z,98495.50
2023-01-17T22:56:21.395Z,98490.56
2023-01-17T22:58:49.181Z,98487.44
2023-01-17T23:01:17.649Z,98486.78
2023-01-17T23:03:45.853Z,98486.72
2023-01-17T23:06:19.058Z,98487.25
2023-01-17T23:08:48.724Z,98497.66
2023-01-17T23:11:36.839Z,98495.25
2023-01-17T23:14:03.629Z,98500.78
2023-01-17T23:16:48.827Z,98500.03
2023-01-17T23:19:24.789Z,98503.81
2023-01-17T23:22:13.375Z,98501.91
2023-01-17T23:24:43.254Z,98511.00
2023-01-17T23:27:59.636Z,98504.56
2023-01-17T23:30:35.424Z,98509.06
2023-01-17T23:33:14.052Z,98508.47
2023-01-17T23:35:43.229Z,98516.56
2023-01-17T23:38:29.031Z,98509.19
2023-01-17T23:41:24.420Z,98508.72
2023-01-17T23:43:56.280Z,98525.63
2023-01-17T23:46:25.231Z,98530.47
2023-01-17T23:48:52.021Z,98529.13
2023-01-17T23:51:18.861Z,98529.03
2023-01-17T23:53:45.567Z,98530.91
2023-01-17T23:56:24.629Z,98529.41
2023-01-17T23:58:51.372Z,98532.81
